»·PEaware :: N734TD KSBA-KSAN

N734TD :: KSBA-KSAN

FLIGHT INFORMATION

Flight Status: Arrived
Operator: Privately registered:
United States
More flights under this callsign
Pilot: Chris S. (2433)
Aircraft: SOCATA TBM-900
(TBM9)
More flights by this aircraft type
Origin: KSBA Santa Barbara Mun
United States
Destination: KSAN San Diego Intl-Lindbergh
United States
More flights between these airports :: More routes between these airports
Route: +KWANG VTU V208 SXC V208 LAX118 CARDI MZB320 MZB
File this flight plan on PilotEdge
Remarks:
Altitude:
(Current/Filed)
13,000ft
Speed:
(Current/Filed)
270kts
Departed: 06-Feb-19 10:21 AM
Arrived: 06-Feb-19 11:15 AM
Distance/Time
Traveled:
167nm/0:53
Distance/Time
To Go:
Arrived

Flight Plot

Page will automatically refresh every two minutes.


Map Options




Map Legend


Flown Route
Filed Route
Departure Airport
Arrival Airport
Navaid (VOR, NDB)
Fix

Horizontal Profiles

Position Reports

Time Latitude Longitude Heading Altitude Ground
Speed
06-Feb-19 10:05 34.432579 -119.835579 249 16ft 0kts
06-Feb-19 10:06 34.432579 -119.835579 249 16ft 0kts
06-Feb-19 10:07 34.432579 -119.835579 249 16ft 0kts
06-Feb-19 10:08 34.432579 -119.835579 249 16ft 0kts
06-Feb-19 10:09 34.432579 -119.835579 249 16ft 0kts
06-Feb-19 10:10 34.432579 -119.835579 249 16ft 0kts
06-Feb-19 10:11 34.432579 -119.835579 249 16ft 0kts
06-Feb-19 10:12 34.432579 -119.835579 249 16ft 0kts
06-Feb-19 10:13 34.432579 -119.835579 249 16ft 0kts
06-Feb-19 10:14 34.432579 -119.835579 249 16ft 0kts
06-Feb-19 10:15 34.432579 -119.835579 249 16ft 0kts
06-Feb-19 10:16 34.432284 -119.835545 159 16ft 0kts
06-Feb-19 10:17 34.430146 -119.835318 177 16ft 11kts
06-Feb-19 10:18 34.428669 -119.835142 175 16ft 0kts
06-Feb-19 10:19 34.428340 -119.835112 175 16ft 7kts
06-Feb-19 10:20 34.427456 -119.855652 273 438ft 123kts
06-Feb-19 10:21 34.423552 -119.905678 266 1821ft 172kts
06-Feb-19 10:22 34.421194 -119.957419 262 4097ft 147kts
06-Feb-19 10:23 34.388891 -119.969135 153 5882ft 169kts
06-Feb-19 10:24 34.346904 -119.942435 153 7579ft 186kts
06-Feb-19 10:25 34.297902 -119.905995 127 8201ft 224kts
06-Feb-19 10:26 34.283394 -119.831842 103 8749ft 234kts
06-Feb-19 10:27 34.266950 -119.753891 103 9033ft 246kts
06-Feb-19 10:28 34.249428 -119.671548 104 9030ft 257kts
06-Feb-19 10:29 34.231384 -119.587018 103 9028ft 260kts
06-Feb-19 10:30 34.213194 -119.502113 103 9028ft 260kts
06-Feb-19 10:31 34.194905 -119.417177 103 9028ft 260kts
06-Feb-19 10:32 34.176511 -119.331931 104 9027ft 260kts
06-Feb-19 10:33 34.158060 -119.246781 104 9027ft 260kts
06-Feb-19 10:34 34.139629 -119.161990 104 9027ft 260kts
06-Feb-19 10:35 34.121071 -119.077031 105 9027ft 260kts
06-Feb-19 10:45 33.751120 -118.786994 141 7711ft 229kts
06-Feb-19 10:46 33.699653 -118.736481 140 7705ft 245kts
06-Feb-19 10:47 33.646274 -118.684231 141 7702ft 248kts
06-Feb-19 10:48 33.592810 -118.631929 141 7701ft 248kts
06-Feb-19 10:49 33.539232 -118.579633 141 7867ft 242kts
06-Feb-19 10:50 33.488818 -118.530521 141 8628ft 228kts
06-Feb-19 10:51 33.439765 -118.482789 141 9206ft 231kts
06-Feb-19 10:52 33.387427 -118.431911 140 9208ft 250kts
06-Feb-19 10:53 33.366288 -118.354095 98 9204ft 256kts
06-Feb-19 10:54 33.354903 -118.268902 98 8991ft 262kts
06-Feb-19 10:55 33.343385 -118.183331 98 8990ft 259kts
06-Feb-19 10:56 33.331891 -118.098340 98 8990ft 258kts
06-Feb-19 10:57 33.320335 -118.013318 98 8990ft 258kts
06-Feb-19 10:58 33.308711 -117.928259 98 8991ft 258kts
06-Feb-19 10:59 33.297045 -117.843343 98 8991ft 258kts
06-Feb-19 11:00 33.285344 -117.758607 98 8991ft 258kts
06-Feb-19 11:01 33.273581 -117.673860 98 8991ft 258kts
06-Feb-19 11:02 33.234949 -117.608575 147 8996ft 257kts
06-Feb-19 11:03 33.175871 -117.559495 144 8991ft 258kts
06-Feb-19 11:04 33.117298 -117.509596 144 8991ft 258kts
06-Feb-19 11:05 33.058832 -117.459820 144 8991ft 258kts
06-Feb-19 11:06 33.000069 -117.409849 144 8991ft 258kts
06-Feb-19 11:07 32.941399 -117.360084 144 8991ft 258kts
06-Feb-19 11:08 32.880536 -117.308533 145 7928ft 269kts
06-Feb-19 11:09 32.827710 -117.250309 131 6952ft 231kts
06-Feb-19 11:10 32.791934 -117.205320 135 5944ft 141kts
06-Feb-19 11:11 32.761766 -117.171109 143 2943ft 159kts
06-Feb-19 11:12 32.732810 -117.157155 223 1179ft 99kts
06-Feb-19 11:13 32.731853 -117.182848 286 22ft 68kts
06-Feb-19 11:14 32.734768 -117.190671 49 16ft 16kts
06-Feb-19 11:15 32.733822 -117.185292 53 16ft 7kts
06-Feb-19 11:16 32.734171 -117.185176 193 16ft 0kts
06-Feb-19 11:18 32.734171 -117.185176 193 16ft 0kts
06-Feb-19 11:19 32.734171 -117.185176 193 16ft 0kts
06-Feb-19 11:20 32.734171 -117.185176 193 16ft 0kts
06-Feb-19 11:21 32.734171 -117.185176 193 16ft 0kts
06-Feb-19 11:22 32.734171 -117.185176 193 16ft 0kts
06-Feb-19 11:23 32.734171 -117.185176 193 16ft 0kts
06-Feb-19 11:24 32.734171 -117.185176 193 16ft 0kts

Navigation Log

Ident Type
Flight plan parsing failed, navigation log unavailable